sensor_id;sensor_type;location;lat;lon;timestamp;pressure;altitude;pressure_sealevel;temperature;humidity
6615;BME280;3343;42.896;23.912;2023-02-26T00:01:24;95272.78;;;19.71;31.74
6615;BME280;3343;42.896;23.912;2023-02-26T00:03:53;95250.94;;;19.64;31.97
6615;BME280;3343;42.896;23.912;2023-02-26T00:06:22;95245.78;;;20.22;30.79
6615;BME280;3343;42.896;23.912;2023-02-26T00:08:49;95252.34;;;19.57;31.84
6615;BME280;3343;42.896;23.912;2023-02-26T00:11:16;95251.00;;;19.49;31.71
6615;BME280;3343;42.896;23.912;2023-02-26T00:13:44;95240.09;;;19.40;31.32
6615;BME280;3343;42.896;23.912;2023-02-26T00:16:14;95246.28;;;19.85;30.79
6615;BME280;3343;42.896;23.912;2023-02-26T00:18:51;95217.03;;;20.09;30.63
6615;BME280;3343;42.896;23.912;2023-02-26T00:21:19;95233.94;;;19.99;30.76
6615;BME280;3343;42.896;23.912;2023-02-26T00:23:47;95249.88;;;19.65;30.83
6615;BME280;3343;42.896;23.912;2023-02-26T00:26:14;95237.78;;;19.78;30.60
6615;BME280;3343;42.896;23.912;2023-02-26T00:28:41;95255.28;;;19.50;30.77
6615;BME280;3343;42.896;23.912;2023-02-26T00:31:09;95224.50;;;19.68;30.17
6615;BME280;3343;42.896;23.912;2023-02-26T00:33:37;95240.22;;;19.75;30.46
6615;BME280;3343;42.896;23.912;2023-02-26T00:36:17;95218.78;;;20.58;29.06
6615;BME280;3343;42.896;23.912;2023-02-26T00:38:56;95226.25;;;19.88;30.43
6615;BME280;3343;42.896;23.912;2023-02-26T00:41:27;95221.09;;;19.57;30.75
6615;BME280;3343;42.896;23.912;2023-02-26T00:43:55;95233.28;;;19.73;30.28
6615;BME280;3343;42.896;23.912;2023-02-26T00:46:29;95224.53;;;20.07;30.39
6615;BME280;3343;42.896;23.912;2023-02-26T00:49:07;95204.28;;;19.57;30.88
6615;BME280;3343;42.896;23.912;2023-02-26T00:51:44;95210.88;;;19.69;30.73
6615;BME280;3343;42.896;23.912;2023-02-26T00:54:17;95211.56;;;19.41;30.91
6615;BME280;3343;42.896;23.912;2023-02-26T00:56:45;95198.59;;;19.73;30.74
6615;BME280;3343;42.896;23.912;2023-02-26T00:59:12;95207.28;;;19.45;30.42
6615;BME280;3343;42.896;23.912;2023-02-26T01:01:39;95203.09;;;19.78;30.26
6615;BME280;3343;42.896;23.912;2023-02-26T01:04:07;95198.03;;;20.16;30.03
6615;BME280;3343;42.896;23.912;2023-02-26T01:06:40;95186.94;;;19.59;30.12
6615;BME280;3343;42.896;23.912;2023-02-26T01:09:14;95184.78;;;19.61;30.11
6615;BME280;3343;42.896;23.912;2023-02-26T01:11:43;95186.38;;;19.62;29.88
6615;BME280;3343;42.896;23.912;2023-02-26T01:14:11;95194.53;;;19.32;30.41
6615;BME280;3343;42.896;23.912;2023-02-26T01:16:46;95186.09;;;20.03;29.31
6615;BME280;3343;42.896;23.912;2023-02-26T01:19:22;95172.38;;;20.15;29.16
6615;BME280;3343;42.896;23.912;2023-02-26T01:21:55;95204.44;;;19.76;29.56
6615;BME280;3343;42.896;23.912;2023-02-26T01:24:27;95170.84;;;19.69;29.50
6615;BME280;3343;42.896;23.912;2023-02-26T01:26:56;95219.59;;;19.36;29.62
6615;BME280;3343;42.896;23.912;2023-02-26T01:29:24;95175.22;;;19.55;28.98
6615;BME280;3343;42.896;23.912;2023-02-26T01:31:55;95196.53;;;19.60;29.17
6615;BME280;3343;42.896;23.912;2023-02-26T01:34:29;95186.72;;;19.90;28.62
6615;BME280;3343;42.896;23.912;2023-02-26T01:37:06;95183.47;;;19.98;28.51
6615;BME280;3343;42.896;23.912;2023-02-26T01:39:39;95185.75;;;19.76;28.61
6615;BME280;3343;42.896;23.912;2023-02-26T01:42:14;95186.19;;;19.88;29.03
6615;BME280;3343;42.896;23.912;2023-02-26T01:44:49;95175.72;;;20.01;28.68
6615;BME280;3343;42.896;23.912;2023-02-26T01:47:23;95163.78;;;20.23;28.10
6615;BME280;3343;42.896;23.912;2023-02-26T01:49:52;95183.53;;;20.22;28.03
6615;BME280;3343;42.896;23.912;2023-02-26T01:55:24;95181.03;;;20.01;28.33
6615;BME280;3343;42.896;23.912;2023-02-26T01:57:54;95185.78;;;19.70;28.65
6615;BME280;3343;42.896;23.912;2023-02-26T02:00:21;95168.19;;;19.69;28.38
6615;BME280;3343;42.896;23.912;2023-02-26T02:02:48;95181.00;;;20.07;27.69
6615;BME280;3343;42.896;23.912;2023-02-26T02:05:21;95175.56;;;19.83;28.43
6615;BME280;3343;42.896;23.912;2023-02-26T02:07:50;95180.38;;;19.81;28.64
6615;BME280;3343;42.896;23.912;2023-02-26T02:10:17;95158.41;;;19.55;28.77
6615;BME280;3343;42.896;23.912;2023-02-26T02:12:50;95176.03;;;19.95;28.26
6615;BME280;3343;42.896;23.912;2023-02-26T02:15:27;95172.34;;;19.86;28.57
6615;BME280;3343;42.896;23.912;2023-02-26T02:18:02;95185.97;;;20.18;27.89
6615;BME280;3343;42.896;23.912;2023-02-26T02:20:56;95188.56;;;20.28;27.54
6615;BME280;3343;42.896;23.912;2023-02-26T02:23:31;95196.47;;;20.10;28.15
6615;BME280;3343;42.896;23.912;2023-02-26T02:31:54;95178.28;;;20.70;27.34
6615;BME280;3343;42.896;23.912;2023-02-26T02:34:25;95170.66;;;20.29;27.18
6615;BME280;3343;42.896;23.912;2023-02-26T02:36:58;95173.38;;;20.24;27.39
6615;BME280;3343;42.896;23.912;2023-02-26T02:39:28;95161.91;;;20.76;27.01
6615;BME280;3343;42.896;23.912;2023-02-26T02:41:59;95176.19;;;20.66;26.60
6615;BME280;3343;42.896;23.912;2023-02-26T02:44:30;95156.94;;;20.41;27.12
6615;BME280;3343;42.896;23.912;2023-02-26T02:47:03;95145.41;;;20.45;26.83
6615;BME280;3343;42.896;23.912;2023-02-26T02:49:35;95169.19;;;20.47;26.65
6615;BME280;3343;42.896;23.912;2023-02-26T02:52:08;95151.34;;;20.37;27.03
6615;BME280;3343;42.896;23.912;2023-02-26T02:54:40;95158.03;;;21.11;26.07
6615;BME280;3343;42.896;23.912;2023-02-26T02:57:11;95153.72;;;20.44;26.82
6615;BME280;3343;42.896;23.912;2023-02-26T02:59:44;95162.53;;;20.68;26.49
6615;BME280;3343;42.896;23.912;2023-02-26T03:02:16;95163.91;;;20.36;26.55
6615;BME280;3343;42.896;23.912;2023-02-26T03:04:45;95171.63;;;20.43;27.54
6615;BME280;3343;42.896;23.912;2023-02-26T03:07:11;95180.97;;;20.12;28.16
6615;BME280;3343;42.896;23.912;2023-02-26T03:09:39;95178.41;;;19.57;29.78
6615;BME280;3343;42.896;23.912;2023-02-26T03:12:06;95174.34;;;19.16;30.38
6615;BME280;3343;42.896;23.912;2023-02-26T03:14:33;95176.53;;;19.08;31.05
6615;BME280;3343;42.896;23.912;2023-02-26T03:19:59;95185.63;;;18.92;32.02
6615;BME280;3343;42.896;23.912;2023-02-26T03:22:36;95181.44;;;18.61;33.32
6615;BME280;3343;42.896;23.912;2023-02-26T03:25:08;95181.94;;;18.78;32.60
6615;BME280;3343;42.896;23.912;2023-02-26T03:27:42;95184.16;;;19.30;32.01
6615;BME280;3343;42.896;23.912;2023-02-26T03:30:14;95189.88;;;18.98;32.66
6615;BME280;3343;42.896;23.912;2023-02-26T03:32:50;95188.47;;;19.16;32.56
6615;BME280;3343;42.896;23.912;2023-02-26T03:35:26;95187.53;;;18.82;32.65
6615;BME280;3343;42.896;23.912;2023-02-26T03:37:58;95197.19;;;18.42;33.62
6615;BME280;3343;42.896;23.912;2023-02-26T03:40:29;95203.84;;;18.65;32.80
6615;BME280;3343;42.896;23.912;2023-02-26T03:42:59;95211.81;;;18.70;33.05
6615;BME280;3343;42.896;23.912;2023-02-26T03:45:31;95214.22;;;18.66;32.63
6615;BME280;3343;42.896;23.912;2023-02-26T03:48:00;95174.84;;;19.23;31.88
6615;BME280;3343;42.896;23.912;2023-02-26T03:50:32;95195.19;;;19.03;31.95
6615;BME280;3343;42.896;23.912;2023-02-26T03:53:04;95203.72;;;19.00;32.30
6615;BME280;3343;42.896;23.912;2023-02-26T03:55:38;95197.19;;;19.37;32.00
6615;BME280;3343;42.896;23.912;2023-02-26T03:58:06;95188.06;;;18.84;32.84
6615;BME280;3343;42.896;23.912;2023-02-26T04:00:35;95189.84;;;19.03;32.64
6615;BME280;3343;42.896;23.912;2023-02-26T04:03:07;95183.28;;;18.81;32.69
6615;BME280;3343;42.896;23.912;2023-02-26T04:05:41;95175.53;;;18.79;32.86
6615;BME280;3343;42.896;23.912;2023-02-26T04:08:09;95187.19;;;19.08;32.40
6615;BME280;3343;42.896;23.912;2023-02-26T04:10:39;95194.53;;;19.32;32.00
6615;BME280;3343;42.896;23.912;2023-02-26T04:13:08;95176.53;;;18.98;32.33
6615;BME280;3343;42.896;23.912;2023-02-26T04:15:35;95184.53;;;18.98;32.13
6615;BME280;3343;42.896;23.912;2023-02-26T04:18:02;95191.47;;;18.99;32.44
6615;BME280;3343;42.896;23.912;2023-02-26T04:20:28;95201.16;;;18.70;32.77
6615;BME280;3343;42.896;23.912;2023-02-26T04:22:57;95182.25;;;18.66;33.09
6615;BME280;3343;42.896;23.912;2023-02-26T04:25:23;95188.91;;;18.59;32.65
6615;BME280;3343;42.896;23.912;2023-02-26T04:27:50;95192.25;;;19.00;32.43
6615;BME280;3343;42.896;23.912;2023-02-26T04:30:17;95183.56;;;18.69;32.70
6615;BME280;3343;42.896;23.912;2023-02-26T04:32:44;95195.31;;;18.53;32.80
6615;BME280;3343;42.896;23.912;2023-02-26T04:35:11;95173.72;;;18.59;33.12
6615;BME280;3343;42.896;23.912;2023-02-26T04:37:38;95195.81;;;18.60;33.32
6615;BME280;3343;42.896;23.912;2023-02-26T04:40:08;95181.94;;;18.78;33.07
6615;BME280;3343;42.896;23.912;2023-02-26T04:42:34;95187.03;;;18.59;33.29
6615;BME280;3343;42.896;23.912;2023-02-26T04:45:02;95184.13;;;18.51;33.24
6615;BME280;3343;42.896;23.912;2023-02-26T04:47:29;95187.84;;;18.65;33.52
6615;BME280;3343;42.896;23.912;2023-02-26T04:49:55;95177.75;;;18.16;34.47
6615;BME280;3343;42.896;23.912;2023-02-26T04:52:22;95168.72;;;18.12;34.52
6615;BME280;3343;42.896;23.912;2023-02-26T04:54:49;95165.81;;;17.83;34.95
6615;BME280;3343;42.896;23.912;2023-02-26T04:57:17;95166.06;;;17.97;35.37
6615;BME280;3343;42.896;23.912;2023-02-26T04:59:44;95173.25;;;17.76;35.08
6615;BME280;3343;42.896;23.912;2023-02-26T05:02:11;95168.72;;;17.66;35.61
6615;BME280;3343;42.896;23.912;2023-02-26T05:04:38;95168.47;;;17.78;35.60
6615;BME280;3343;42.896;23.912;2023-02-26T05:07:04;95179.91;;;17.78;35.59
6615;BME280;3343;42.896;23.912;2023-02-26T05:09:31;95162.56;;;17.50;36.07
6615;BME280;3343;42.896;23.912;2023-02-26T05:11:58;95168.47;;;17.78;35.75
6615;BME280;3343;42.896;23.912;2023-02-26T05:14:26;95168.19;;;18.05;35.26
6615;BME280;3343;42.896;23.912;2023-02-26T05:16:53;95185.50;;;17.82;35.57
6615;BME280;3343;42.896;23.912;2023-02-26T05:19:20;95177.50;;;17.72;35.55
6615;BME280;3343;42.896;23.912;2023-02-26T05:21:47;95173.47;;;17.64;35.94
6615;BME280;3343;42.896;23.912;2023-02-26T05:24:14;95178.31;;;17.77;35.53
6615;BME280;3343;42.896;23.912;2023-02-26T05:26:41;95170.06;;;18.09;35.11
6615;BME280;3343;42.896;23.912;2023-02-26T05:29:08;95168.19;;;17.95;35.35
6615;BME280;3343;42.896;23.912;2023-02-26T05:31:36;95158.59;;;18.09;35.11
6615;BME280;3343;42.896;23.912;2023-02-26T05:34:03;95173.25;;;17.71;35.37
6615;BME280;3343;42.896;23.912;2023-02-26T05:36:30;95157.03;;;17.88;34.83
6615;BME280;3343;42.896;23.912;2023-02-26T05:38:56;95174.59;;;18.29;34.19
6615;BME280;3343;42.896;23.912;2023-02-26T05:41:23;95147.44;;;18.07;34.86
6615;BME280;3343;42.896;23.912;2023-02-26T05:43:50;95140.50;;;18.01;33.86
6615;BME280;3343;42.896;23.912;2023-02-26T05:46:17;95160.72;;;18.42;33.53
6615;BME280;3343;42.896;23.912;2023-02-26T05:48:45;95172.47;;;18.21;34.19
6615;BME280;3343;42.896;23.912;2023-02-26T05:51:12;95152.69;;;18.53;33.38
6615;BME280;3343;42.896;23.912;2023-02-26T05:53:39;95154.31;;;18.43;33.39
6615;BME280;3343;42.896;23.912;2023-02-26T05:56:06;95159.94;;;18.06;34.08
6615;BME280;3343;42.896;23.912;2023-02-26T05:58:33;95154.63;;;18.27;33.70
6615;BME280;3343;42.896;23.912;2023-02-26T06:01:00;95153.28;;;18.09;33.42
6615;BME280;3343;42.896;23.912;2023-02-26T06:03:27;95143.16;;;18.26;33.45
6615;BME280;3343;42.896;23.912;2023-02-26T06:05:55;95155.63;;;18.61;32.96
6615;BME280;3343;42.896;23.912;2023-02-26T06:08:22;95140.44;;;18.46;33.00
6615;BME280;3343;42.896;23.912;2023-02-26T06:10:49;95153.13;;;18.85;32.37
6615;BME280;3343;42.896;23.912;2023-02-26T06:13:17;95162.44;;;18.88;32.07
6615;BME280;3343;42.896;23.912;2023-02-26T06:15:44;95164.91;;;18.74;32.23
6615;BME280;3343;42.896;23.912;2023-02-26T06:18:11;95173.69;;;18.74;31.80
6615;BME280;3343;42.896;23.912;2023-02-26T06:20:38;95161.09;;;18.90;31.34
6615;BME280;3343;42.896;23.912;2023-02-26T06:23:06;95156.31;;;18.92;31.55
6615;BME280;3343;42.896;23.912;2023-02-26T06:25:33;95160.59;;;18.88;31.47
6615;BME280;3343;42.896;23.912;2023-02-26T06:27:59;95160.78;;;19.07;31.13
6615;BME280;3343;42.896;23.912;2023-02-26T06:30:27;95149.34;;;18.96;31.38
6615;BME280;3343;42.896;23.912;2023-02-26T06:32:54;95157.94;;;19.42;30.92
6615;BME280;3343;42.896;23.912;2023-02-26T06:35:21;95147.00;;;20.17;30.00
6615;BME280;3343;42.896;23.912;2023-02-26T06:37:47;95157.34;;;20.24;29.55
6615;BME280;3343;42.896;23.912;2023-02-26T06:40:16;95155.19;;;19.92;30.16
6615;BME280;3343;42.896;23.912;2023-02-26T06:42:43;95156.19;;;19.67;30.41
6615;BME280;3343;42.896;23.912;2023-02-26T06:45:10;95162.75;;;19.40;30.46
6615;BME280;3343;42.896;23.912;2023-02-26T06:47:37;95129.31;;;20.21;29.66
6615;BME280;3343;42.896;23.912;2023-02-26T06:50:05;95147.41;;;20.29;29.83
6615;BME280;3343;42.896;23.912;2023-02-26T06:52:32;95149.03;;;20.83;28.93
6615;BME280;3343;42.896;23.912;2023-02-26T06:54:59;95137.19;;;20.36;28.90
6615;BME280;3343;42.896;23.912;2023-02-26T06:57:28;95136.91;;;20.09;29.62
6615;BME280;3343;42.896;23.912;2023-02-26T06:59:55;95138.41;;;20.20;28.85
6615;BME280;3343;42.896;23.912;2023-02-26T07:02:22;95138.47;;;20.15;29.13
6615;BME280;3343;42.896;23.912;2023-02-26T07:04:49;95124.66;;;20.85;28.87
6615;BME280;3343;42.896;23.912;2023-02-26T07:07:16;95128.94;;;20.86;28.20
6615;BME280;3343;42.896;23.912;2023-02-26T07:09:43;95125.91;;;20.16;29.38
6615;BME280;3343;42.896;23.912;2023-02-26T07:12:10;95146.38;;;20.54;29.02
6615;BME280;3343;42.896;23.912;2023-02-26T07:14:38;95131.75;;;20.71;29.00
6615;BME280;3343;42.896;23.912;2023-02-26T07:17:05;95115.63;;;20.28;29.19
6615;BME280;3343;42.896;23.912;2023-02-26T07:19:32;95125.50;;;20.56;28.54
6615;BME280;3343;42.896;23.912;2023-02-26T07:21:59;95102.00;;;21.20;27.93
6615;BME280;3343;42.896;23.912;2023-02-26T07:24:26;95113.56;;;20.96;27.69
6615;BME280;3343;42.896;23.912;2023-02-26T07:26:53;95105.91;;;21.09;27.60
6615;BME280;3343;42.896;23.912;2023-02-26T07:29:19;95114.59;;;20.24;28.44
6615;BME280;3343;42.896;23.912;2023-02-26T07:31:48;95125.28;;;21.01;27.82
6615;BME280;3343;42.896;23.912;2023-02-26T07:34:14;95120.53;;;21.35;27.41
6615;BME280;3343;42.896;23.912;2023-02-26T07:36:41;95137.28;;;21.22;27.44
6615;BME280;3343;42.896;23.912;2023-02-26T07:39:09;95127.84;;;21.48;26.85
6615;BME280;3343;42.896;23.912;2023-02-26T07:41:36;95137.75;;;21.29;26.83
6615;BME280;3343;42.896;23.912;2023-02-26T07:44:03;95136.38;;;20.89;27.34
6615;BME280;3343;42.896;23.912;2023-02-26T07:48:58;95113.69;;;21.29;27.20
6615;BME280;3343;42.896;23.912;2023-02-26T07:51:24;95135.19;;;21.94;26.81
6615;BME280;3343;42.896;23.912;2023-02-26T07:53:51;95140.72;;;21.46;27.20
6615;BME280;3343;42.896;23.912;2023-02-26T07:56:18;95136.31;;;21.55;27.39
6615;BME280;3343;42.896;23.912;2023-02-26T07:58:46;95125.78;;;21.21;27.59
6615;BME280;3343;42.896;23.912;2023-02-26T08:01:13;95127.28;;;20.90;27.60
6615;BME280;3343;42.896;23.912;2023-02-26T08:03:40;95137.44;;;20.64;28.02
6615;BME280;3343;42.896;23.912;2023-02-26T08:06:08;95148.44;;;21.67;27.42
6615;BME280;3343;42.896;23.912;2023-02-26T08:08:35;95139.63;;;21.47;26.82
6615;BME280;3343;42.896;23.912;2023-02-26T08:11:02;95155.78;;;20.99;27.79
6615;BME280;3343;42.896;23.912;2023-02-26T08:13:29;95150.28;;;21.52;26.64
6615;BME280;3343;42.896;23.912;2023-02-26T08:15:56;95142.84;;;22.01;26.54
6615;BME280;3343;42.896;23.912;2023-02-26T08:18:23;95142.94;;;21.20;27.40
6615;BME280;3343;42.896;23.912;2023-02-26T08:20:50;95148.31;;;21.39;27.44
6615;BME280;3343;42.896;23.912;2023-02-26T08:23:19;95137.91;;;21.56;27.48
6615;BME280;3343;42.896;23.912;2023-02-26T08:25:46;95138.63;;;21.81;27.56
6615;BME280;3343;42.896;23.912;2023-02-26T08:28:14;95128.47;;;22.43;25.88
6615;BME280;3343;42.896;23.912;2023-02-26T08:30:41;95144.19;;;22.03;26.75
6615;BME280;3343;42.896;23.912;2023-02-26T08:33:08;95139.06;;;22.20;26.92
6615;BME280;3343;42.896;23.912;2023-02-26T08:35:35;95103.53;;;21.63;27.83
6615;BME280;3343;42.896;23.912;2023-02-26T08:38:02;95128.50;;;22.10;27.04
6615;BME280;3343;42.896;23.912;2023-02-26T08:40:30;95133.50;;;22.17;27.19
6615;BME280;3343;42.896;23.912;2023-02-26T08:42:57;95130.06;;;22.44;26.86
6615;BME280;3343;42.896;23.912;2023-02-26T08:45:24;95131.53;;;21.71;26.79
6615;BME280;3343;42.896;23.912;2023-02-26T08:47:50;95145.66;;;21.77;26.88
6615;BME280;3343;42.896;23.912;2023-02-26T08:50:20;95137.69;;;21.53;27.64
6615;BME280;3343;42.896;23.912;2023-02-26T08:52:47;95138.56;;;21.48;27.92
6615;BME280;3343;42.896;23.912;2023-02-26T08:55:14;95145.00;;;21.47;27.84
6615;BME280;3343;42.896;23.912;2023-02-26T08:57:42;95127.03;;;21.48;27.91
6615;BME280;3343;42.896;23.912;2023-02-26T09:00:10;95140.16;;;21.07;28.97
6615;BME280;3343;42.896;23.912;2023-02-26T09:02:37;95124.78;;;21.17;28.21
6615;BME280;3343;42.896;23.912;2023-02-26T09:05:04;95138.34;;;20.54;29.06
6615;BME280;3343;42.896;23.912;2023-02-26T09:07:31;95131.59;;;20.86;28.43
6615;BME280;3343;42.896;23.912;2023-02-26T09:09:58;95143.97;;;20.82;28.46
6615;BME280;3343;42.896;23.912;2023-02-26T09:12:25;95128.13;;;21.28;28.29
6615;BME280;3343;42.896;23.912;2023-02-26T09:14:53;95109.41;;;21.98;27.44
6615;BME280;3343;42.896;23.912;2023-02-26T09:17:23;95130.25;;;21.69;27.52
6615;BME280;3343;42.896;23.912;2023-02-26T09:19:50;95123.28;;;22.33;26.89
6615;BME280;3343;42.896;23.912;2023-02-26T09:22:17;95127.47;;;22.39;26.36
6615;BME280;3343;42.896;23.912;2023-02-26T09:24:44;95121.94;;;22.76;25.88
6615;BME280;3343;42.896;23.912;2023-02-26T09:27:11;95126.81;;;23.15;25.69
6615;BME280;3343;42.896;23.912;2023-02-26T09:29:37;95118.56;;;22.71;26.32
6615;BME280;3343;42.896;23.912;2023-02-26T09:32:06;95130.50;;;22.65;26.59
6615;BME280;3343;42.896;23.912;2023-02-26T09:34:33;95121.38;;;21.87;26.52
6615;BME280;3343;42.896;23.912;2023-02-26T09:37:00;95109.25;;;22.54;26.20
6615;BME280;3343;42.896;23.912;2023-02-26T09:39:26;95104.88;;;22.86;25.62
6615;BME280;3343;42.896;23.912;2023-02-26T09:41:56;95115.19;;;22.79;26.21
6615;BME280;3343;42.896;23.912;2023-02-26T09:44:26;95127.56;;;23.57;25.27
6615;BME280;3343;42.896;23.912;2023-02-26T09:47:00;95126.47;;;23.80;25.32
6615;BME280;3343;42.896;23.912;2023-02-26T09:49:47;95113.38;;;24.63;24.01
6615;BME280;3343;42.896;23.912;2023-02-26T09:52:20;95110.16;;;23.99;24.15
6615;BME280;3343;42.896;23.912;2023-02-26T09:54:51;95100.03;;;23.24;25.40
6615;BME280;3343;42.896;23.912;2023-02-26T09:57:28;95099.91;;;23.43;24.28
6615;BME280;3343;42.896;23.912;2023-02-26T09:59:56;95101.56;;;24.20;23.82
6615;BME280;3343;42.896;23.912;2023-02-26T10:02:34;95111.00;;;24.31;23.68
6615;BME280;3343;42.896;23.912;2023-02-26T10:05:15;95096.97;;;23.89;23.66
6615;BME280;3343;42.896;23.912;2023-02-26T10:07:47;95102.97;;;24.17;23.76
6615;BME280;3343;42.896;23.912;2023-02-26T10:10:23;95101.72;;;23.92;23.77
6615;BME280;3343;42.896;23.912;2023-02-26T10:12:55;95107.19;;;23.42;24.41
6615;BME280;3343;42.896;23.912;2023-02-26T10:15:28;95077.06;;;24.43;23.88
6615;BME280;3343;42.896;23.912;2023-02-26T10:18:04;95079.91;;;23.13;24.78
6615;BME280;3343;42.896;23.912;2023-02-26T10:20:37;95091.59;;;23.89;24.38
6615;BME280;3343;42.896;23.912;2023-02-26T10:23:14;95093.69;;;24.23;24.04
6615;BME280;3343;42.896;23.912;2023-02-26T10:25:47;95083.03;;;24.32;23.77
6615;BME280;3343;42.896;23.912;2023-02-26T10:28:32;95079.91;;;24.95;23.65
6615;BME280;3343;42.896;23.912;2023-02-26T10:31:04;95076.75;;;24.45;23.07
6615;BME280;3343;42.896;23.912;2023-02-26T10:33:39;95082.84;;;25.16;22.98
6615;BME280;3343;42.896;23.912;2023-02-26T10:36:18;95072.72;;;25.48;22.47
6615;BME280;3343;42.896;23.912;2023-02-26T10:39:02;95070.47;;;24.27;23.10
6615;BME280;3343;42.896;23.912;2023-02-26T10:41:32;95064.69;;;24.34;23.20
6615;BME280;3343;42.896;23.912;2023-02-26T10:44:11;95067.09;;;24.22;23.25
6615;BME280;3343;42.896;23.912;2023-02-26T10:46:47;95055.59;;;25.26;23.39
6615;BME280;3343;42.896;23.912;2023-02-26T10:49:30;95071.63;;;25.40;22.07
6615;BME280;3343;42.896;23.912;2023-02-26T10:52:11;95080.97;;;25.34;22.38
6615;BME280;3343;42.896;23.912;2023-02-26T10:54:46;95070.16;;;25.86;22.31
6615;BME280;3343;42.896;23.912;2023-02-26T10:57:20;95077.31;;;25.82;22.47
6615;BME280;3343;42.896;23.912;2023-02-26T10:59:48;95081.69;;;26.21;21.90
6615;BME280;3343;42.896;23.912;2023-02-26T11:02:32;95056.84;;;26.07;21.56
6615;BME280;3343;42.896;23.912;2023-02-26T11:05:00;95054.59;;;26.17;21.89
6615;BME280;3343;42.896;23.912;2023-02-26T11:07:29;95069.41;;;26.79;21.90
6615;BME280;3343;42.896;23.912;2023-02-26T11:09:57;95051.63;;;26.78;21.80
6615;BME280;3343;42.896;23.912;2023-02-26T11:12:24;95035.72;;;26.55;21.25
6615;BME280;3343;42.896;23.912;2023-02-26T11:14:53;95036.47;;;26.35;21.73
6615;BME280;3343;42.896;23.912;2023-02-26T11:17:21;95043.78;;;26.17;20.56
6615;BME280;3343;42.896;23.912;2023-02-26T11:19:55;95029.63;;;26.38;21.10
6615;BME280;3343;42.896;23.912;2023-02-26T11:22:24;95028.19;;;26.40;21.13
6615;BME280;3343;42.896;23.912;2023-02-26T11:24:53;95017.06;;;25.86;21.38
6615;BME280;3343;42.896;23.912;2023-02-26T11:27:25;95034.50;;;25.02;22.82
6615;BME280;3343;42.896;23.912;2023-02-26T11:29:54;95023.03;;;24.71;23.45
6615;BME280;3343;42.896;23.912;2023-02-26T11:32:28;95033.22;;;23.81;23.26
6615;BME280;3343;42.896;23.912;2023-02-26T11:34:56;95036.00;;;23.98;23.81
6615;BME280;3343;42.896;23.912;2023-02-26T11:37:29;95025.56;;;23.97;23.82
6615;BME280;3343;42.896;23.912;2023-02-26T11:40:04;95046.31;;;24.05;24.60
6615;BME280;3343;42.896;23.912;2023-02-26T11:42:35;95052.91;;;23.32;25.15
6615;BME280;3343;42.896;23.912;2023-02-26T11:45:04;95057.28;;;23.41;25.38
6615;BME280;3343;42.896;23.912;2023-02-26T11:47:33;95050.56;;;23.97;24.54
6615;BME280;3343;42.896;23.912;2023-02-26T11:50:02;95059.66;;;24.41;24.49
6615;BME280;3343;42.896;23.912;2023-02-26T11:52:33;95046.72;;;23.90;24.92
6615;BME280;3343;42.896;23.912;2023-02-26T11:55:16;95038.25;;;23.74;25.12
6615;BME280;3343;42.896;23.912;2023-02-26T11:57:44;95054.94;;;23.62;25.35
6615;BME280;3343;42.896;23.912;2023-02-26T12:00:19;95054.97;;;23.48;25.42
6615;BME280;3343;42.896;23.912;2023-02-26T12:02:46;95050.28;;;24.07;25.29
6615;BME280;3343;42.896;23.912;2023-02-26T12:05:16;95060.00;;;24.26;25.64
6615;BME280;3343;42.896;23.912;2023-02-26T12:07:43;95092.97;;;23.28;25.81
6615;BME280;3343;42.896;23.912;2023-02-26T12:10:15;95095.63;;;23.06;26.72
6615;BME280;3343;42.896;23.912;2023-02-26T12:13:03;95106.38;;;23.42;26.43
6615;BME280;3343;42.896;23.912;2023-02-26T12:15:37;95106.03;;;23.21;26.72
6615;BME280;3343;42.896;23.912;2023-02-26T12:18:20;95115.56;;;23.27;26.40
6615;BME280;3343;42.896;23.912;2023-02-26T12:21:01;95108.41;;;23.23;26.67
6615;BME280;3343;42.896;23.912;2023-02-26T12:23:43;95113.81;;;24.03;25.54
6615;BME280;3343;42.896;23.912;2023-02-26T12:26:25;95098.59;;;23.40;26.22
6615;BME280;3343;42.896;23.912;2023-02-26T12:29:11;95111.16;;;23.45;25.99
6615;BME280;3343;42.896;23.912;2023-02-26T12:32:05;95118.69;;;23.57;26.02
6615;BME280;3343;42.896;23.912;2023-02-26T12:34:49;95100.38;;;24.57;25.95
6615;BME280;3343;42.896;23.912;2023-02-26T12:37:33;95098.56;;;23.68;25.99
6615;BME280;3343;42.896;23.912;2023-02-26T12:40:14;95107.09;;;23.92;25.70
6615;BME280;3343;42.896;23.912;2023-02-26T12:42:51;95116.25;;;24.13;25.44
6615;BME280;3343;42.896;23.912;2023-02-26T12:45:42;95097.72;;;23.59;25.50
6615;BME280;3343;42.896;23.912;2023-02-26T12:48:43;95120.78;;;23.46;26.13
6615;BME280;3343;42.896;23.912;2023-02-26T12:51:21;95086.06;;;23.49;26.54
6615;BME280;3343;42.896;23.912;2023-02-26T12:54:03;95098.91;;;23.52;25.76
6615;BME280;3343;42.896;23.912;2023-02-26T12:57:12;95093.44;;;23.80;25.65
6615;BME280;3343;42.896;23.912;2023-02-26T12:59:58;95088.00;;;24.25;25.01
6615;BME280;3343;42.896;23.912;2023-02-26T13:02:55;95088.97;;;25.08;24.61
6615;BME280;3343;42.896;23.912;2023-02-26T13:05:41;95093.78;;;25.37;23.93
6615;BME280;3343;42.896;23.912;2023-02-26T13:08:17;95091.91;;;25.81;24.10
6615;BME280;3343;42.896;23.912;2023-02-26T13:10:53;95086.81;;;25.36;23.78
6615;BME280;3343;42.896;23.912;2023-02-26T13:13:47;95097.75;;;25.22;24.43
6615;BME280;3343;42.896;23.912;2023-02-26T13:16:29;95090.72;;;25.13;24.12
6615;BME280;3343;42.896;23.912;2023-02-26T13:19:04;95105.00;;;24.65;24.10
6615;BME280;3343;42.896;23.912;2023-02-26T13:21:36;95095.22;;;24.15;25.31
6615;BME280;3343;42.896;23.912;2023-02-26T13:24:06;95115.31;;;23.37;26.09
6615;BME280;3343;42.896;23.912;2023-02-26T13:26:37;95116.34;;;23.28;26.45
6615;BME280;3343;42.896;23.912;2023-02-26T13:29:10;95111.50;;;23.16;26.59
6615;BME280;3343;42.896;23.912;2023-02-26T13:31:44;95121.06;;;23.08;26.28
6615;BME280;3343;42.896;23.912;2023-02-26T13:34:17;95128.78;;;23.24;26.26
6615;BME280;3343;42.896;23.912;2023-02-26T13:36:46;95115.72;;;22.95;26.60
6615;BME280;3343;42.896;23.912;2023-02-26T13:39:28;95117.00;;;22.70;26.81
6615;BME280;3343;42.896;23.912;2023-02-26T13:42:02;95139.44;;;23.01;26.04
6615;BME280;3343;42.896;23.912;2023-02-26T13:44:37;95112.81;;;24.22;25.49